sensor_id;sensor_type;location;lat;lon;timestamp;P1;durP1;ratioP1;P2;durP2;ratioP2
9698;SDS011;10089;47.876;8.346;2024-02-21T00:01:49;9.05;;;3.80;;
9698;SDS011;10089;47.876;8.346;2024-02-21T00:04:15;17.42;;;4.55;;
9698;SDS011;10089;47.876;8.346;2024-02-21T00:06:41;6.13;;;3.20;;
9698;SDS011;10089;47.876;8.346;2024-02-21T00:09:06;5.90;;;2.80;;
9698;SDS011;10089;47.876;8.346;2024-02-21T00:11:34;7.10;;;2.77;;
9698;SDS011;10089;47.876;8.346;2024-02-21T00:14:00;6.85;;;2.63;;
9698;SDS011;10089;47.876;8.346;2024-02-21T00:16:25;4.90;;;2.60;;
9698;SDS011;10089;47.876;8.346;2024-02-21T00:18:51;3.27;;;2.10;;
9698;SDS011;10089;47.876;8.346;2024-02-21T00:21:17;5.03;;;2.25;;
9698;SDS011;10089;47.876;8.346;2024-02-21T00:23:46;4.78;;;2.17;;
9698;SDS011;10089;47.876;8.346;2024-02-21T00:26:12;4.10;;;2.55;;
9698;SDS011;10089;47.876;8.346;2024-02-21T00:28:38;6.22;;;2.25;;
9698;SDS011;10089;47.876;8.346;2024-02-21T00:31:04;5.55;;;2.03;;
9698;SDS011;10089;47.876;8.346;2024-02-21T00:33:30;4.95;;;2.40;;
9698;SDS011;10089;47.876;8.346;2024-02-21T00:35:55;5.10;;;2.67;;
9698;SDS011;10089;47.876;8.346;2024-02-21T00:38:21;6.47;;;2.83;;
9698;SDS011;10089;47.876;8.346;2024-02-21T00:40:47;7.18;;;2.30;;
9698;SDS011;10089;47.876;8.346;2024-02-21T00:43:12;7.95;;;2.90;;
9698;SDS011;10089;47.876;8.346;2024-02-21T00:45:38;6.07;;;3.05;;
9698;SDS011;10089;47.876;8.346;2024-02-21T00:48:04;4.45;;;2.53;;
9698;SDS011;10089;47.876;8.346;2024-02-21T00:50:29;6.78;;;2.30;;
9698;SDS011;10089;47.876;8.346;2024-02-21T00:52:55;8.70;;;2.92;;
9698;SDS011;10089;47.876;8.346;2024-02-21T00:55:21;5.13;;;2.28;;
9698;SDS011;10089;47.876;8.346;2024-02-21T00:57:46;8.30;;;2.45;;
9698;SDS011;10089;47.876;8.346;2024-02-21T01:00:12;5.93;;;2.50;;
9698;SDS011;10089;47.876;8.346;2024-02-21T01:02:38;7.13;;;2.63;;
9698;SDS011;10089;47.876;8.346;2024-02-21T01:05:04;4.03;;;2.33;;
9698;SDS011;10089;47.876;8.346;2024-02-21T01:07:30;3.85;;;2.45;;
9698;SDS011;10089;47.876;8.346;2024-02-21T01:09:55;3.78;;;2.20;;
9698;SDS011;10089;47.876;8.346;2024-02-21T01:12:21;5.97;;;2.50;;
9698;SDS011;10089;47.876;8.346;2024-02-21T01:14:47;5.68;;;2.58;;
9698;SDS011;10089;47.876;8.346;2024-02-21T01:17:14;4.05;;;2.60;;
9698;SDS011;10089;47.876;8.346;2024-02-21T01:19:40;6.13;;;2.72;;
9698;SDS011;10089;47.876;8.346;2024-02-21T01:22:05;7.03;;;2.80;;
9698;SDS011;10089;47.876;8.346;2024-02-21T01:24:31;5.07;;;2.97;;
9698;SDS011;10089;47.876;8.346;2024-02-21T01:26:56;6.70;;;2.83;;
9698;SDS011;10089;47.876;8.346;2024-02-21T01:29:22;7.65;;;3.30;;
9698;SDS011;10089;47.876;8.346;2024-02-21T01:31:48;7.40;;;3.63;;
9698;SDS011;10089;47.876;8.346;2024-02-21T01:34:13;6.82;;;3.35;;
9698;SDS011;10089;47.876;8.346;2024-02-21T01:36:39;5.95;;;3.10;;
9698;SDS011;10089;47.876;8.346;2024-02-21T01:39:04;6.28;;;3.25;;
9698;SDS011;10089;47.876;8.346;2024-02-21T01:41:30;5.93;;;3.00;;
9698;SDS011;10089;47.876;8.346;2024-02-21T01:43:56;5.43;;;2.72;;
9698;SDS011;10089;47.876;8.346;2024-02-21T01:46:22;7.78;;;3.38;;
9698;SDS011;10089;47.876;8.346;2024-02-21T01:48:48;6.15;;;2.70;;
9698;SDS011;10089;47.876;8.346;2024-02-21T01:51:14;5.82;;;2.10;;
9698;SDS011;10089;47.876;8.346;2024-02-21T01:53:42;4.63;;;2.55;;
9698;SDS011;10089;47.876;8.346;2024-02-21T01:56:09;2.95;;;2.35;;
9698;SDS011;10089;47.876;8.346;2024-02-21T01:58:36;5.75;;;2.30;;
9698;SDS011;10089;47.876;8.346;2024-02-21T02:01:03;5.53;;;2.28;;
9698;SDS011;10089;47.876;8.346;2024-02-21T02:03:29;4.03;;;2.13;;
9698;SDS011;10089;47.876;8.346;2024-02-21T02:05:55;4.43;;;2.40;;
9698;SDS011;10089;47.876;8.346;2024-02-21T02:08:20;4.20;;;2.13;;
9698;SDS011;10089;47.876;8.346;2024-02-21T02:10:49;7.10;;;2.47;;
9698;SDS011;10089;47.876;8.346;2024-02-21T02:13:15;3.97;;;2.22;;
9698;SDS011;10089;47.876;8.346;2024-02-21T02:15:41;5.75;;;2.55;;
9698;SDS011;10089;47.876;8.346;2024-02-21T02:18:08;4.75;;;2.30;;
9698;SDS011;10089;47.876;8.346;2024-02-21T02:20:35;5.90;;;1.98;;
9698;SDS011;10089;47.876;8.346;2024-02-21T02:23:03;5.25;;;2.63;;
9698;SDS011;10089;47.876;8.346;2024-02-21T02:25:36;5.28;;;2.25;;
9698;SDS011;10089;47.876;8.346;2024-02-21T02:28:11;3.42;;;2.65;;
9698;SDS011;10089;47.876;8.346;2024-02-21T02:30:36;2.92;;;2.47;;
9698;SDS011;10089;47.876;8.346;2024-02-21T02:33:05;3.47;;;2.42;;
9698;SDS011;10089;47.876;8.346;2024-02-21T02:35:31;5.68;;;2.38;;
9698;SDS011;10089;47.876;8.346;2024-02-21T02:37:57;4.55;;;2.20;;
9698;SDS011;10089;47.876;8.346;2024-02-21T02:40:23;7.65;;;2.95;;
9698;SDS011;10089;47.876;8.346;2024-02-21T02:42:49;4.15;;;2.60;;
9698;SDS011;10089;47.876;8.346;2024-02-21T02:45:16;4.22;;;2.30;;
9698;SDS011;10089;47.876;8.346;2024-02-21T02:47:44;6.50;;;2.85;;
9698;SDS011;10089;47.876;8.346;2024-02-21T02:50:13;3.63;;;2.20;;
9698;SDS011;10089;47.876;8.346;2024-02-21T02:52:39;6.97;;;2.60;;
9698;SDS011;10089;47.876;8.346;2024-02-21T02:55:05;3.85;;;2.17;;
9698;SDS011;10089;47.876;8.346;2024-02-21T02:57:31;3.70;;;2.30;;
9698;SDS011;10089;47.876;8.346;2024-02-21T02:59:57;3.47;;;2.50;;
9698;SDS011;10089;47.876;8.346;2024-02-21T03:02:23;6.38;;;2.90;;
9698;SDS011;10089;47.876;8.346;2024-02-21T03:04:48;5.63;;;2.78;;
9698;SDS011;10089;47.876;8.346;2024-02-21T03:07:14;5.63;;;2.78;;
9698;SDS011;10089;47.876;8.346;2024-02-21T03:09:40;9.10;;;2.77;;
9698;SDS011;10089;47.876;8.346;2024-02-21T03:12:08;5.67;;;2.10;;
9698;SDS011;10089;47.876;8.346;2024-02-21T03:14:34;6.73;;;2.43;;
9698;SDS011;10089;47.876;8.346;2024-02-21T03:17:00;3.77;;;2.30;;
9698;SDS011;10089;47.876;8.346;2024-02-21T03:19:26;6.53;;;2.17;;
9698;SDS011;10089;47.876;8.346;2024-02-21T03:21:51;8.53;;;2.80;;
9698;SDS011;10089;47.876;8.346;2024-02-21T03:24:18;3.47;;;1.73;;
9698;SDS011;10089;47.876;8.346;2024-02-21T03:26:44;7.57;;;2.53;;
9698;SDS011;10089;47.876;8.346;2024-02-21T03:29:11;8.00;;;2.70;;
9698;SDS011;10089;47.876;8.346;2024-02-21T03:31:37;7.55;;;2.33;;
9698;SDS011;10089;47.876;8.346;2024-02-21T03:34:02;7.27;;;2.93;;
9698;SDS011;10089;47.876;8.346;2024-02-21T03:36:28;9.47;;;2.97;;
9698;SDS011;10089;47.876;8.346;2024-02-21T03:38:54;4.73;;;2.30;;
9698;SDS011;10089;47.876;8.346;2024-02-21T03:41:20;4.73;;;2.50;;
9698;SDS011;10089;47.876;8.346;2024-02-21T03:43:46;5.07;;;2.67;;
9698;SDS011;10089;47.876;8.346;2024-02-21T03:46:11;4.67;;;2.20;;
9698;SDS011;10089;47.876;8.346;2024-02-21T03:48:37;6.00;;;2.10;;
9698;SDS011;10089;47.876;8.346;2024-02-21T03:51:02;3.15;;;2.55;;
9698;SDS011;10089;47.876;8.346;2024-02-21T03:53:28;5.10;;;2.60;;
9698;SDS011;10089;47.876;8.346;2024-02-21T03:55:54;5.00;;;2.28;;
9698;SDS011;10089;47.876;8.346;2024-02-21T03:58:20;11.38;;;2.33;;
9698;SDS011;10089;47.876;8.346;2024-02-21T04:00:46;4.20;;;2.33;;
9698;SDS011;10089;47.876;8.346;2024-02-21T04:03:11;5.90;;;2.25;;
9698;SDS011;10089;47.876;8.346;2024-02-21T04:05:37;5.17;;;2.67;;
9698;SDS011;10089;47.876;8.346;2024-02-21T04:08:05;6.18;;;2.53;;
9698;SDS011;10089;47.876;8.346;2024-02-21T04:10:31;5.05;;;2.03;;
9698;SDS011;10089;47.876;8.346;2024-02-21T04:12:57;11.87;;;2.67;;
9698;SDS011;10089;47.876;8.346;2024-02-21T04:15:22;10.40;;;3.03;;
9698;SDS011;10089;47.876;8.346;2024-02-21T04:17:48;7.27;;;3.00;;
9698;SDS011;10089;47.876;8.346;2024-02-21T04:20:14;6.97;;;3.03;;
9698;SDS011;10089;47.876;8.346;2024-02-21T04:22:44;9.13;;;2.60;;
9698;SDS011;10089;47.876;8.346;2024-02-21T04:25:10;7.80;;;3.17;;
9698;SDS011;10089;47.876;8.346;2024-02-21T04:27:37;4.33;;;3.13;;
9698;SDS011;10089;47.876;8.346;2024-02-21T04:30:03;10.67;;;2.73;;
9698;SDS011;10089;47.876;8.346;2024-02-21T04:32:29;4.28;;;2.78;;
9698;SDS011;10089;47.876;8.346;2024-02-21T04:34:55;3.77;;;2.70;;
9698;SDS011;10089;47.876;8.346;2024-02-21T04:37:20;8.23;;;3.28;;
9698;SDS011;10089;47.876;8.346;2024-02-21T04:39:46;6.07;;;2.53;;
9698;SDS011;10089;47.876;8.346;2024-02-21T04:42:13;13.33;;;3.33;;
9698;SDS011;10089;47.876;8.346;2024-02-21T04:44:39;16.63;;;4.00;;
9698;SDS011;10089;47.876;8.346;2024-02-21T04:47:04;11.65;;;3.05;;
9698;SDS011;10089;47.876;8.346;2024-02-21T04:49:30;9.73;;;2.90;;
9698;SDS011;10089;47.876;8.346;2024-02-21T04:51:56;5.93;;;2.70;;
9698;SDS011;10089;47.876;8.346;2024-02-21T04:54:21;10.60;;;2.72;;
9698;SDS011;10089;47.876;8.346;2024-02-21T04:56:47;7.00;;;2.90;;
9698;SDS011;10089;47.876;8.346;2024-02-21T04:59:12;8.95;;;2.63;;
9698;SDS011;10089;47.876;8.346;2024-02-21T05:01:38;3.33;;;2.17;;
9698;SDS011;10089;47.876;8.346;2024-02-21T05:04:03;7.37;;;2.70;;
9698;SDS011;10089;47.876;8.346;2024-02-21T05:06:29;7.33;;;2.60;;
9698;SDS011;10089;47.876;8.346;2024-02-21T05:08:54;6.25;;;2.72;;
9698;SDS011;10089;47.876;8.346;2024-02-21T05:11:23;10.15;;;3.15;;
9698;SDS011;10089;47.876;8.346;2024-02-21T05:13:50;6.90;;;3.33;;
9698;SDS011;10089;47.876;8.346;2024-02-21T05:16:15;9.73;;;3.13;;
9698;SDS011;10089;47.876;8.346;2024-02-21T05:18:41;11.13;;;3.45;;
9698;SDS011;10089;47.876;8.346;2024-02-21T05:21:07;6.68;;;3.17;;
9698;SDS011;10089;47.876;8.346;2024-02-21T05:23:33;8.77;;;3.42;;
9698;SDS011;10089;47.876;8.346;2024-02-21T05:25:59;6.18;;;3.00;;
9698;SDS011;10089;47.876;8.346;2024-02-21T05:28:24;6.90;;;2.40;;
9698;SDS011;10089;47.876;8.346;2024-02-21T05:30:50;4.78;;;2.17;;
9698;SDS011;10089;47.876;8.346;2024-02-21T05:33:15;9.65;;;3.33;;
9698;SDS011;10089;47.876;8.346;2024-02-21T05:35:46;4.17;;;2.90;;
9698;SDS011;10089;47.876;8.346;2024-02-21T05:38:15;5.05;;;2.42;;
9698;SDS011;10089;47.876;8.346;2024-02-21T05:40:41;4.53;;;2.83;;
9698;SDS011;10089;47.876;8.346;2024-02-21T05:43:07;6.78;;;3.08;;
9698;SDS011;10089;47.876;8.346;2024-02-21T05:45:33;7.18;;;2.80;;
9698;SDS011;10089;47.876;8.346;2024-02-21T05:47:59;11.55;;;3.05;;
9698;SDS011;10089;47.876;8.346;2024-02-21T05:50:25;6.53;;;2.75;;
9698;SDS011;10089;47.876;8.346;2024-02-21T05:52:53;8.80;;;2.83;;
9698;SDS011;10089;47.876;8.346;2024-02-21T05:55:19;10.95;;;3.22;;
9698;SDS011;10089;47.876;8.346;2024-02-21T05:57:45;5.75;;;3.10;;
9698;SDS011;10089;47.876;8.346;2024-02-21T06:00:10;7.50;;;3.20;;
9698;SDS011;10089;47.876;8.346;2024-02-21T06:02:36;7.22;;;3.08;;
9698;SDS011;10089;47.876;8.346;2024-02-21T06:05:02;3.90;;;2.80;;
9698;SDS011;10089;47.876;8.346;2024-02-21T06:07:28;8.40;;;2.73;;
9698;SDS011;10089;47.876;8.346;2024-02-21T06:09:53;7.97;;;2.63;;
9698;SDS011;10089;47.876;8.346;2024-02-21T06:12:19;8.60;;;2.92;;
9698;SDS011;10089;47.876;8.346;2024-02-21T06:14:44;5.85;;;2.42;;
9698;SDS011;10089;47.876;8.346;2024-02-21T06:17:10;6.40;;;2.80;;
9698;SDS011;10089;47.876;8.346;2024-02-21T06:19:39;9.70;;;2.78;;
9698;SDS011;10089;47.876;8.346;2024-02-21T06:22:05;5.78;;;2.63;;
9698;SDS011;10089;47.876;8.346;2024-02-21T06:24:32;5.47;;;2.40;;
9698;SDS011;10089;47.876;8.346;2024-02-21T06:26:59;8.48;;;2.80;;
9698;SDS011;10089;47.876;8.346;2024-02-21T06:29:24;6.87;;;2.80;;
9698;SDS011;10089;47.876;8.346;2024-02-21T06:31:50;11.30;;;4.20;;
9698;SDS011;10089;47.876;8.346;2024-02-21T06:34:15;6.20;;;4.20;;
9698;SDS011;10089;47.876;8.346;2024-02-21T06:36:42;7.63;;;4.15;;
9698;SDS011;10089;47.876;8.346;2024-02-21T06:39:07;10.60;;;4.43;;
9698;SDS011;10089;47.876;8.346;2024-02-21T06:41:33;11.10;;;4.50;;
9698;SDS011;10089;47.876;8.346;2024-02-21T06:43:59;7.78;;;3.75;;
9698;SDS011;10089;47.876;8.346;2024-02-21T06:46:25;16.00;;;3.92;;
9698;SDS011;10089;47.876;8.346;2024-02-21T06:48:52;9.10;;;3.70;;
9698;SDS011;10089;47.876;8.346;2024-02-21T06:51:17;8.07;;;3.85;;
9698;SDS011;10089;47.876;8.346;2024-02-21T06:53:43;7.68;;;3.78;;
9698;SDS011;10089;47.876;8.346;2024-02-21T06:56:09;10.57;;;4.40;;
9698;SDS011;10089;47.876;8.346;2024-02-21T06:58:35;8.57;;;4.40;;
9698;SDS011;10089;47.876;8.346;2024-02-21T07:01:01;9.13;;;4.43;;
9698;SDS011;10089;47.876;8.346;2024-02-21T07:03:27;6.60;;;3.93;;
9698;SDS011;10089;47.876;8.346;2024-02-21T07:05:52;11.27;;;3.60;;
9698;SDS011;10089;47.876;8.346;2024-02-21T07:08:18;12.27;;;3.80;;
9698;SDS011;10089;47.876;8.346;2024-02-21T07:10:43;7.72;;;4.18;;
9698;SDS011;10089;47.876;8.346;2024-02-21T07:13:09;7.83;;;4.80;;
9698;SDS011;10089;47.876;8.346;2024-02-21T07:15:35;8.00;;;4.43;;
9698;SDS011;10089;47.876;8.346;2024-02-21T07:18:01;8.40;;;4.00;;
9698;SDS011;10089;47.876;8.346;2024-02-21T07:20:27;9.33;;;4.27;;
9698;SDS011;10089;47.876;8.346;2024-02-21T07:22:53;10.53;;;3.60;;
9698;SDS011;10089;47.876;8.346;2024-02-21T07:25:19;11.63;;;3.53;;
9698;SDS011;10089;47.876;8.346;2024-02-21T07:27:45;8.83;;;3.50;;
9698;SDS011;10089;47.876;8.346;2024-02-21T07:30:10;8.63;;;3.50;;
9698;SDS011;10089;47.876;8.346;2024-02-21T07:32:36;11.40;;;3.67;;
9698;SDS011;10089;47.876;8.346;2024-02-21T07:35:02;6.65;;;3.53;;
9698;SDS011;10089;47.876;8.346;2024-02-21T07:37:28;11.60;;;3.57;;
9698;SDS011;10089;47.876;8.346;2024-02-21T07:39:54;9.82;;;3.10;;
9698;SDS011;10089;47.876;8.346;2024-02-21T07:42:19;5.32;;;2.65;;
9698;SDS011;10089;47.876;8.346;2024-02-21T07:44:45;5.60;;;2.60;;
9698;SDS011;10089;47.876;8.346;2024-02-21T07:47:11;11.40;;;3.23;;
9698;SDS011;10089;47.876;8.346;2024-02-21T07:49:45;12.57;;;5.78;;
9698;SDS011;10089;47.876;8.346;2024-02-21T07:52:11;8.40;;;4.00;;
9698;SDS011;10089;47.876;8.346;2024-02-21T07:54:37;14.77;;;5.28;;
9698;SDS011;10089;47.876;8.346;2024-02-21T07:57:02;10.05;;;4.75;;
9698;SDS011;10089;47.876;8.346;2024-02-21T07:59:29;13.52;;;4.82;;
9698;SDS011;10089;47.876;8.346;2024-02-21T08:01:56;11.43;;;4.60;;
9698;SDS011;10089;47.876;8.346;2024-02-21T08:04:22;6.78;;;3.42;;
9698;SDS011;10089;47.876;8.346;2024-02-21T08:06:51;10.98;;;3.88;;
9698;SDS011;10089;47.876;8.346;2024-02-21T08:09:18;10.80;;;4.50;;
9698;SDS011;10089;47.876;8.346;2024-02-21T08:11:44;7.70;;;4.00;;
9698;SDS011;10089;47.876;8.346;2024-02-21T08:14:10;9.07;;;3.60;;
9698;SDS011;10089;47.876;8.346;2024-02-21T08:16:35;8.07;;;3.80;;
9698;SDS011;10089;47.876;8.346;2024-02-21T08:19:01;9.20;;;4.30;;
9698;SDS011;10089;47.876;8.346;2024-02-21T08:21:29;8.93;;;4.10;;
9698;SDS011;10089;47.876;8.346;2024-02-21T08:23:54;6.60;;;3.63;;
9698;SDS011;10089;47.876;8.346;2024-02-21T08:26:20;9.88;;;3.88;;
9698;SDS011;10089;47.876;8.346;2024-02-21T08:28:46;8.75;;;3.80;;
9698;SDS011;10089;47.876;8.346;2024-02-21T08:31:17;11.30;;;4.53;;
9698;SDS011;10089;47.876;8.346;2024-02-21T08:33:43;11.50;;;3.95;;
9698;SDS011;10089;47.876;8.346;2024-02-21T08:36:09;10.57;;;4.03;;
9698;SDS011;10089;47.876;8.346;2024-02-21T08:38:43;8.40;;;3.47;;
9698;SDS011;10089;47.876;8.346;2024-02-21T08:41:08;5.10;;;3.65;;
9698;SDS011;10089;47.876;8.346;2024-02-21T08:43:34;12.75;;;3.30;;
9698;SDS011;10089;47.876;8.346;2024-02-21T08:46:00;8.05;;;3.35;;
9698;SDS011;10089;47.876;8.346;2024-02-21T08:48:26;4.55;;;3.17;;
9698;SDS011;10089;47.876;8.346;2024-02-21T08:50:52;5.60;;;3.13;;
9698;SDS011;10089;47.876;8.346;2024-02-21T08:53:19;10.00;;;3.45;;
9698;SDS011;10089;47.876;8.346;2024-02-21T08:55:45;6.32;;;4.07;;
9698;SDS011;10089;47.876;8.346;2024-02-21T08:58:10;12.88;;;5.75;;
9698;SDS011;10089;47.876;8.346;2024-02-21T09:00:36;9.32;;;4.90;;
9698;SDS011;10089;47.876;8.346;2024-02-21T09:03:02;5.82;;;4.00;;
9698;SDS011;10089;47.876;8.346;2024-02-21T09:05:28;10.60;;;5.18;;
9698;SDS011;10089;47.876;8.346;2024-02-21T09:07:54;8.85;;;4.57;;
9698;SDS011;10089;47.876;8.346;2024-02-21T09:10:21;7.32;;;4.07;;
9698;SDS011;10089;47.876;8.346;2024-02-21T09:12:46;5.05;;;2.65;;
9698;SDS011;10089;47.876;8.346;2024-02-21T09:15:12;8.43;;;3.17;;
9698;SDS011;10089;47.876;8.346;2024-02-21T09:17:38;6.07;;;2.67;;
9698;SDS011;10089;47.876;8.346;2024-02-21T09:20:04;8.70;;;2.50;;
9698;SDS011;10089;47.876;8.346;2024-02-21T09:22:31;3.25;;;2.17;;
9698;SDS011;10089;47.876;8.346;2024-02-21T09:24:59;2.92;;;1.98;;
9698;SDS011;10089;47.876;8.346;2024-02-21T09:27:25;5.68;;;2.22;;
9698;SDS011;10089;47.876;8.346;2024-02-21T09:29:51;4.95;;;2.30;;
9698;SDS011;10089;47.876;8.346;2024-02-21T09:32:17;4.97;;;2.67;;
9698;SDS011;10089;47.876;8.346;2024-02-21T09:34:44;5.82;;;2.72;;
9698;SDS011;10089;47.876;8.346;2024-02-21T09:37:10;6.40;;;3.38;;
9698;SDS011;10089;47.876;8.346;2024-02-21T09:39:36;13.60;;;5.60;;
9698;SDS011;10089;47.876;8.346;2024-02-21T09:42:07;6.75;;;3.78;;
9698;SDS011;10089;47.876;8.346;2024-02-21T09:44:37;12.32;;;7.07;;
9698;SDS011;10089;47.876;8.346;2024-02-21T09:47:03;20.77;;;8.77;;
9698;SDS011;10089;47.876;8.346;2024-02-21T09:49:57;10.60;;;5.65;;
9698;SDS011;10089;47.876;8.346;2024-02-21T09:52:24;16.75;;;9.85;;
9698;SDS011;10089;47.876;8.346;2024-02-21T09:54:51;6.40;;;3.35;;
9698;SDS011;10089;47.876;8.346;2024-02-21T09:57:18;9.73;;;3.65;;
9698;SDS011;10089;47.876;8.346;2024-02-21T09:59:45;5.85;;;3.58;;
9698;SDS011;10089;47.876;8.346;2024-02-21T10:02:11;4.93;;;2.90;;
9698;SDS011;10089;47.876;8.346;2024-02-21T10:04:37;4.30;;;3.10;;
9698;SDS011;10089;47.876;8.346;2024-02-21T10:07:05;7.72;;;3.47;;
9698;SDS011;10089;47.876;8.346;2024-02-21T10:09:30;4.25;;;3.28;;
9698;SDS011;10089;47.876;8.346;2024-02-21T10:11:56;5.55;;;3.33;;
9698;SDS011;10089;47.876;8.346;2024-02-21T10:14:35;4.57;;;2.30;;
9698;SDS011;10089;47.876;8.346;2024-02-21T10:17:01;8.25;;;2.80;;
9698;SDS011;10089;47.876;8.346;2024-02-21T10:19:27;4.20;;;2.92;;
9698;SDS011;10089;47.876;8.346;2024-02-21T10:22:03;4.60;;;3.13;;
9698;SDS011;10089;47.876;8.346;2024-02-21T10:24:37;4.88;;;2.50;;
9698;SDS011;10089;47.876;8.346;2024-02-21T10:27:09;4.82;;;2.63;;
9698;SDS011;10089;47.876;8.346;2024-02-21T10:29:38;6.32;;;3.33;;
9698;SDS011;10089;47.876;8.346;2024-02-21T10:32:05;5.45;;;3.30;;
9698;SDS011;10089;47.876;8.346;2024-02-21T10:34:32;11.50;;;4.75;;
9698;SDS011;10089;47.876;8.346;2024-02-21T10:37:10;6.70;;;3.50;;
9698;SDS011;10089;47.876;8.346;2024-02-21T10:39:46;7.13;;;4.28;;
9698;SDS011;10089;47.876;8.346;2024-02-21T10:42:11;6.05;;;3.92;;
9698;SDS011;10089;47.876;8.346;2024-02-21T10:44:37;6.63;;;4.10;;
9698;SDS011;10089;47.876;8.346;2024-02-21T10:47:07;8.18;;;4.40;;
9698;SDS011;10089;47.876;8.346;2024-02-21T10:49:36;5.38;;;3.60;;
9698;SDS011;10089;47.876;8.346;2024-02-21T10:57:25;30.40;;;16.58;;
9698;SDS011;10089;47.876;8.346;2024-02-21T10:59:52;27.55;;;15.20;;
9698;SDS011;10089;47.876;8.346;2024-02-21T11:02:19;14.95;;;7.65;;
9698;SDS011;10089;47.876;8.346;2024-02-21T11:04:46;18.95;;;9.98;;
9698;SDS011;10089;47.876;8.346;2024-02-21T11:07:12;6.78;;;3.10;;
9698;SDS011;10089;47.876;8.346;2024-02-21T11:09:39;22.67;;;12.02;;
9698;SDS011;10089;47.876;8.346;2024-02-21T11:12:05;8.73;;;4.47;;
9698;SDS011;10089;47.876;8.346;2024-02-21T11:14:31;9.75;;;4.32;;
9698;SDS011;10089;47.876;8.346;2024-02-21T11:16:57;6.32;;;3.88;;
9698;SDS011;10089;47.876;8.346;2024-02-21T11:19:27;11.63;;;5.22;;
9698;SDS011;10089;47.876;8.346;2024-02-21T11:21:54;10.27;;;5.78;;
9698;SDS011;10089;47.876;8.346;2024-02-21T11:24:27;10.35;;;4.90;;
9698;SDS011;10089;47.876;8.346;2024-02-21T11:26:56;5.95;;;3.50;;
9698;SDS011;10089;47.876;8.346;2024-02-21T11:29:33;6.32;;;3.45;;
9698;SDS011;10089;47.876;8.346;2024-02-21T11:32:06;7.78;;;4.18;;
9698;SDS011;10089;47.876;8.346;2024-02-21T11:34:35;5.22;;;3.13;;
9698;SDS011;10089;47.876;8.346;2024-02-21T11:37:01;5.00;;;3.17;;
9698;SDS011;10089;47.876;8.346;2024-02-21T11:39:26;6.15;;;3.58;;
9698;SDS011;10089;47.876;8.346;2024-02-21T11:42:05;7.20;;;3.78;;
9698;SDS011;10089;47.876;8.346;2024-02-21T11:44:38;11.45;;;6.93;;
9698;SDS011;10089;47.876;8.346;2024-02-21T11:47:05;6.25;;;4.25;;
9698;SDS011;10089;47.876;8.346;2024-02-21T11:49:36;6.88;;;4.38;;
9698;SDS011;10089;47.876;8.346;2024-02-21T11:52:10;8.18;;;4.43;;
9698;SDS011;10089;47.876;8.346;2024-02-21T11:54:36;6.65;;;4.22;;
9698;SDS011;10089;47.876;8.346;2024-02-21T11:57:02;7.78;;;4.65;;
9698;SDS011;10089;47.876;8.346;2024-02-21T11:59:32;9.98;;;4.40;;
9698;SDS011;10089;47.876;8.346;2024-02-21T12:01:59;7.85;;;3.88;;
9698;SDS011;10089;47.876;8.346;2024-02-21T12:04:25;10.07;;;4.45;;
9698;SDS011;10089;47.876;8.346;2024-02-21T12:06:54;8.05;;;4.00;;
9698;SDS011;10089;47.876;8.346;2024-02-21T12:09:22;8.68;;;5.00;;
9698;SDS011;10089;47.876;8.346;2024-02-21T12:11:56;6.13;;;3.97;;
9698;SDS011;10089;47.876;8.346;2024-02-21T12:14:25;6.10;;;4.15;;
9698;SDS011;10089;47.876;8.346;2024-02-21T12:16:53;6.75;;;4.45;;
9698;SDS011;10089;47.876;8.346;2024-02-21T12:19:19;10.82;;;4.90;;
9698;SDS011;10089;47.876;8.346;2024-02-21T12:21:45;8.15;;;4.63;;
9698;SDS011;10089;47.876;8.346;2024-02-21T12:24:15;6.65;;;3.88;;
9698;SDS011;10089;47.876;8.346;2024-02-21T12:26:49;7.30;;;4.63;;
9698;SDS011;10089;47.876;8.346;2024-02-21T12:29:21;14.63;;;8.23;;
9698;SDS011;10089;47.876;8.346;2024-02-21T12:31:48;9.68;;;5.43;;
9698;SDS011;10089;47.876;8.346;2024-02-21T12:34:20;7.60;;;4.43;;
9698;SDS011;10089;47.876;8.346;2024-02-21T12:36:47;8.63;;;4.10;;
9698;SDS011;10089;47.876;8.346;2024-02-21T12:39:12;8.00;;;4.63;;
9698;SDS011;10089;47.876;8.346;2024-02-21T12:41:39;10.65;;;4.43;;
9698;SDS011;10089;47.876;8.346;2024-02-21T12:44:05;8.55;;;6.05;;
9698;SDS011;10089;47.876;8.346;2024-02-21T12:46:36;7.53;;;4.93;;
9698;SDS011;10089;47.876;8.346;2024-02-21T12:49:02;7.68;;;5.00;;
9698;SDS011;10089;47.876;8.346;2024-02-21T12:51:29;10.38;;;5.65;;
9698;SDS011;10089;47.876;8.346;2024-02-21T12:53:56;8.07;;;3.15;;
9698;SDS011;10089;47.876;8.346;2024-02-21T12:56:21;6.70;;;4.05;;
9698;SDS011;10089;47.876;8.346;2024-02-21T12:58:47;9.35;;;6.55;;
9698;SDS011;10089;47.876;8.346;2024-02-21T13:01:13;11.68;;;7.03;;
9698;SDS011;10089;47.876;8.346;2024-02-21T13:03:38;4.88;;;3.95;;
9698;SDS011;10089;47.876;8.346;2024-02-21T13:06:05;4.88;;;4.13;;
9698;SDS011;10089;47.876;8.346;2024-02-21T13:08:33;5.53;;;3.03;;
9698;SDS011;10089;47.876;8.346;2024-02-21T13:11:00;4.88;;;3.50;;
9698;SDS011;10089;47.876;8.346;2024-02-21T13:13:26;6.18;;;3.58;;
9698;SDS011;10089;47.876;8.346;2024-02-21T13:15:51;5.88;;;3.20;;
9698;SDS011;10089;47.876;8.346;2024-02-21T13:18:17;6.90;;;3.10;;
9698;SDS011;10089;47.876;8.346;2024-02-21T13:20:43;6.32;;;3.63;;
9698;SDS011;10089;47.876;8.346;2024-02-21T13:23:08;7.07;;;3.38;;
9698;SDS011;10089;47.876;8.346;2024-02-21T13:25:34;9.52;;;3.47;;
9698;SDS011;10089;47.876;8.346;2024-02-21T13:27:59;4.25;;;3.47;;
9698;SDS011;10089;47.876;8.346;2024-02-21T13:30:25;6.55;;;4.85;;
9698;SDS011;10089;47.876;8.346;2024-02-21T13:32:51;7.43;;;4.18;;
9698;SDS011;10089;47.876;8.346;2024-02-21T13:35:17;6.80;;;3.88;;
9698;SDS011;10089;47.876;8.346;2024-02-21T13:37:43;3.95;;;3.30;;
9698;SDS011;10089;47.876;8.346;2024-02-21T13:40:08;5.90;;;3.50;;
9698;SDS011;10089;47.876;8.346;2024-02-21T13:42:35;10.13;;;3.78;;
9698;SDS011;10089;47.876;8.346;2024-02-21T13:45:01;9.23;;;4.22;;
9698;SDS011;10089;47.876;8.346;2024-02-21T13:47:28;7.80;;;4.65;;
9698;SDS011;10089;47.876;8.346;2024-02-21T13:49:54;8.05;;;3.83;;
9698;SDS011;10089;47.876;8.346;2024-02-21T13:52:20;7.07;;;3.67;;
9698;SDS011;10089;47.876;8.346;2024-02-21T13:54:46;6.85;;;3.55;;
9698;SDS011;10089;47.876;8.346;2024-02-21T13:57:12;5.90;;;3.25;;
9698;SDS011;10089;47.876;8.346;2024-02-21T13:59:39;5.13;;;2.97;;
9698;SDS011;10089;47.876;8.346;2024-02-21T14:02:05;7.85;;;3.90;;
9698;SDS011;10089;47.876;8.346;2024-02-21T14:04:33;5.53;;;3.83;;
9698;SDS011;10089;47.876;8.346;2024-02-21T14:06:59;5.38;;;3.45;;
9698;SDS011;10089;47.876;8.346;2024-02-21T14:09:25;10.35;;;3.60;;
9698;SDS011;10089;47.876;8.346;2024-02-21T14:11:51;6.65;;;3.45;;
9698;SDS011;10089;47.876;8.346;2024-02-21T14:14:17;5.82;;;3.03;;
9698;SDS011;10089;47.876;8.346;2024-02-21T14:16:43;6.97;;;3.47;;
9698;SDS011;10089;47.876;8.346;2024-02-21T14:19:08;7.20;;;3.53;;
9698;SDS011;10089;47.876;8.346;2024-02-21T14:21:35;9.05;;;3.45;;
9698;SDS011;10089;47.876;8.346;2024-02-21T14:24:02;7.35;;;3.13;;
9698;SDS011;10089;47.876;8.346;2024-02-21T14:26:32;7.57;;;3.30;;
9698;SDS011;10089;47.876;8.346;2024-02-21T14:28:58;6.05;;;3.33;;
9698;SDS011;10089;47.876;8.346;2024-02-21T14:31:24;5.47;;;3.42;;
9698;SDS011;10089;47.876;8.346;2024-02-21T14:33:50;4.43;;;3.53;;
9698;SDS011;10089;47.876;8.346;2024-02-21T14:36:16;3.97;;;2.85;;
9698;SDS011;10089;47.876;8.346;2024-02-21T14:38:41;5.55;;;3.38;;
9698;SDS011;10089;47.876;8.346;2024-02-21T14:41:08;8.95;;;3.60;;
9698;SDS011;10089;47.876;8.346;2024-02-21T14:43:37;5.50;;;3.42;;
9698;SDS011;10089;47.876;8.346;2024-02-21T14:46:03;6.25;;;3.28;;
9698;SDS011;10089;47.876;8.346;2024-02-21T14:48:30;4.43;;;3.47;;
9698;SDS011;10089;47.876;8.346;2024-02-21T14:50:57;6.28;;;3.50;;
9698;SDS011;10089;47.876;8.346;2024-02-21T14:53:23;5.93;;;3.30;;
9698;SDS011;10089;47.876;8.346;2024-02-21T14:55:49;5.05;;;2.97;;
9698;SDS011;10089;47.876;8.346;2024-02-21T14:58:15;9.38;;;3.63;;
9698;SDS011;10089;47.876;8.346;2024-02-21T15:00:43;3.78;;;3.33;;